Time;durP1;ratioP1;P1;durP2;ratioP2;P2;SDS_P1;SDS_P2;PMS_P1;PMS_P2;Temp;Humidity;BMP_temperature;BMP_pressure;BME280_temperature;BME280_humidity;BME280_pressure;Samples;Min_cycle;Max_cycle;Signal;HPM_P1;HPM_P2
2024/02/15 00:00:12;;;;;;;2.27;1.70;;;5.50;99.90;;;;;;2057229;28;20698;-74
2024/02/15 00:01:13;;;;;;;1.50;1.35;;;5.60;99.90;;;;;;2057583;28;20207;-74
2024/02/15 00:02:15;;;;;;;4.10;1.52;;;5.50;99.90;;;;;;2060969;28;20190;-74
2024/02/15 00:03:15;;;;;;;3.25;1.55;;;5.40;99.90;;;;;;2057182;28;20190;-73
2024/02/15 00:04:17;;;;;;;2.87;1.80;;;5.50;99.90;;;;;;2045844;28;20196;-77
2024/02/15 00:05:18;;;;;;;2.13;1.50;;;5.50;99.90;;;;;;2052704;28;20184;-74
2024/02/15 00:06:20;;;;;;;4.60;1.70;;;5.50;99.90;;;;;;2054197;28;20184;-75
2024/02/15 00:07:22;;;;;;;2.92;1.60;;;5.50;99.90;;;;;;2050421;28;20239;-75
2024/02/15 00:08:24;;;;;;;2.25;1.67;;;5.50;99.90;;;;;;2050247;28;20256;-73
2024/02/15 00:09:25;;;;;;;2.47;1.52;;;5.50;99.90;;;;;;2052170;28;20691;-74
2024/02/15 00:10:26;;;;;;;3.13;1.30;;;5.50;99.90;;;;;;2051171;28;20720;-75
2024/02/15 00:11:27;;;;;;;2.90;1.80;;;5.50;99.90;;;;;;2054955;28;20226;-73
2024/02/15 00:12:27;;;;;;;1.70;1.50;;;5.60;99.90;;;;;;2047035;28;20230;-73
2024/02/15 00:13:28;;;;;;;2.77;1.50;;;5.60;99.90;;;;;;2046870;28;20338;-74
2024/02/15 00:14:29;;;;;;;3.40;1.30;;;5.50;99.90;;;;;;2046247;28;20266;-73
2024/02/15 00:15:29;;;;;;;4.33;1.30;;;5.50;99.90;;;;;;2051012;28;20251;-74
2024/02/15 00:16:30;;;;;;;1.73;1.60;;;5.60;99.90;;;;;;2046991;28;20301;-74
2024/02/15 00:17:32;;;;;;;2.57;1.60;;;5.60;99.90;;;;;;2054815;28;20277;-73
2024/02/15 00:18:34;;;;;;;1.40;1.20;;;5.60;99.90;;;;;;2047032;28;20274;-74
2024/02/15 00:19:35;;;;;;;3.13;1.20;;;5.60;99.90;;;;;;2055121;28;20226;-74
2024/02/15 00:20:37;;;;;;;2.08;1.35;;;5.70;99.90;;;;;;2056782;28;20226;-73
2024/02/15 00:21:42;;;;;;;3.70;1.35;;;5.70;99.90;;;;;;2051098;28;20287;-74
2024/02/15 00:22:44;;;;;;;3.53;1.20;;;5.80;99.90;;;;;;2047335;28;20242;-74
2024/02/15 00:23:44;;;;;;;2.35;1.40;;;5.80;99.90;;;;;;2049923;28;20255;-74
2024/02/15 00:24:46;;;;;;;2.50;1.40;;;5.90;99.90;;;;;;2052973;28;20763;-73
2024/02/15 00:25:47;;;;;;;2.33;1.30;;;5.90;99.90;;;;;;2046911;28;20319;-74
2024/02/15 00:26:48;;;;;;;3.73;1.47;;;5.80;99.90;;;;;;2048389;28;20258;-75
2024/02/15 00:27:48;;;;;;;3.73;1.70;;;5.80;99.90;;;;;;2050591;28;20236;-74
2024/02/15 00:28:49;;;;;;;3.30;1.50;;;5.80;99.90;;;;;;2049089;28;20274;-74
2024/02/15 00:29:49;;;;;;;5.00;1.20;;;5.80;99.90;;;;;;2050334;28;20222;-73
2024/02/15 00:30:50;;;;;;;1.80;1.30;;;5.80;99.90;;;;;;2050510;28;20652;-73
2024/02/15 00:31:51;;;;;;;3.63;1.30;;;5.70;99.90;;;;;;2060653;28;20227;-74
2024/02/15 00:32:52;;;;;;;2.17;1.20;;;5.60;99.90;;;;;;2053295;28;20231;-73
2024/02/15 00:33:53;;;;;;;1.40;1.20;;;5.70;99.90;;;;;;2054677;28;20280;-74
2024/02/15 00:34:54;;;;;;;3.13;1.48;;;5.60;99.90;;;;;;2054244;28;20239;-73
2024/02/15 00:35:55;;;;;;;2.07;1.20;;;5.60;99.90;;;;;;2046743;28;20239;-74
2024/02/15 00:36:55;;;;;;;1.97;1.40;;;5.60;99.90;;;;;;2046445;28;20334;-74
2024/02/15 00:37:57;;;;;;;1.80;1.27;;;5.60;99.90;;;;;;2058286;28;20238;-74
2024/02/15 00:38:57;;;;;;;3.17;1.70;;;5.50;99.90;;;;;;2051462;28;20231;-74
2024/02/15 00:39:58;;;;;;;2.43;1.50;;;5.50;99.90;;;;;;2034438;28;20773;-75
2024/02/15 00:40:59;;;;;;;4.23;1.40;;;5.50;99.90;;;;;;2042524;29;20265;-76
2024/02/15 00:42:03;;;;;;;3.67;1.90;;;5.30;99.90;;;;;;2042854;28;20310;-74
2024/02/15 00:43:04;;;;;;;2.00;1.45;;;5.40;99.90;;;;;;2042647;28;20629;-74
2024/02/15 00:44:05;;;;;;;3.05;1.40;;;5.40;99.90;;;;;;2054113;28;20209;-74
2024/02/15 00:45:07;;;;;;;4.50;1.30;;;5.40;99.90;;;;;;2053421;28;20222;-74
2024/02/15 00:46:08;;;;;;;3.97;2.03;;;5.30;99.90;;;;;;2047634;28;20184;-75
2024/02/15 00:47:12;;;;;;;3.00;1.70;;;5.20;99.90;;;;;;2053983;28;20235;-73
2024/02/15 00:48:12;;;;;;;3.83;2.10;;;5.20;99.90;;;;;;2054339;28;20459;-74
2024/02/15 00:49:13;;;;;;;2.03;1.70;;;5.20;99.90;;;;;;2049198;28;20693;-75
2024/02/15 00:50:14;;;;;;;2.33;1.50;;;5.10;99.90;;;;;;2060112;28;20190;-74
2024/02/15 00:51:14;;;;;;;2.20;1.30;;;5.00;99.90;;;;;;2054865;28;20241;-74
2024/02/15 00:52:15;;;;;;;3.23;1.30;;;5.00;99.90;;;;;;2046500;28;20676;-73
2024/02/15 00:53:16;;;;;;;4.00;1.37;;;5.00;99.90;;;;;;2050326;28;20187;-73
2024/02/15 00:54:17;;;;;;;1.70;1.30;;;4.90;99.90;;;;;;2048954;28;20955;-72
2024/02/15 00:55:19;;;;;;;5.47;1.60;;;4.90;99.90;;;;;;2058433;28;20523;-74
2024/02/15 00:56:19;;;;;;;1.83;1.38;;;4.90;99.90;;;;;;2054394;28;20179;-73
2024/02/15 00:57:20;;;;;;;2.23;1.30;;;4.90;99.90;;;;;;2052047;28;20945;-74
2024/02/15 00:58:21;;;;;;;3.17;1.50;;;4.90;99.90;;;;;;2049068;28;20326;-74
2024/02/15 00:59:22;;;;;;;2.58;1.73;;;4.90;99.90;;;;;;2054610;28;20288;-74
2024/02/15 01:00:22;;;;;;;4.23;1.50;;;4.90;99.90;;;;;;2057226;28;20858;-74
2024/02/15 01:01:23;;;;;;;3.13;1.67;;;4.90;99.90;;;;;;2047415;28;20244;-74
2024/02/15 01:02:24;;;;;;;1.70;1.60;;;5.00;99.90;;;;;;2038208;28;20291;-74
2024/02/15 01:03:25;;;;;;;2.13;1.50;;;5.00;99.90;;;;;;2041609;28;20231;-74
2024/02/15 01:04:26;;;;;;;2.70;1.40;;;5.00;99.90;;;;;;2041796;28;20278;-74
2024/02/15 01:05:27;;;;;;;2.70;1.70;;;5.10;99.90;;;;;;2054387;28;20724;-75
2024/02/15 01:06:28;;;;;;;2.40;1.40;;;5.00;99.90;;;;;;2058320;28;20234;-74
2024/02/15 01:07:28;;;;;;;3.50;1.90;;;5.00;99.90;;;;;;2055380;28;20345;-74
2024/02/15 01:08:29;;;;;;;2.07;1.30;;;5.00;99.90;;;;;;2046177;28;20808;-74
2024/02/15 01:09:30;;;;;;;2.85;1.55;;;5.10;99.90;;;;;;2050086;28;20231;-73
2024/02/15 01:10:31;;;;;;;2.10;1.30;;;5.10;99.90;;;;;;2055488;28;20689;-73
2024/02/15 01:11:32;;;;;;;2.77;1.70;;;5.00;99.90;;;;;;2042123;28;20238;-74
2024/02/15 01:12:33;;;;;;;3.40;1.92;;;4.90;99.90;;;;;;2042271;28;20220;-74
2024/02/15 01:13:33;;;;;;;2.13;1.20;;;4.90;99.90;;;;;;2042680;28;20232;-74
2024/02/15 01:14:34;;;;;;;3.33;1.90;;;4.80;99.90;;;;;;2041943;29;20236;-74
2024/02/15 01:15:37;;;;;;;1.30;1.20;;;4.90;99.90;;;;;;2042543;29;20697;-75
2024/02/15 01:16:37;;;;;;;2.60;1.80;;;4.90;99.90;;;;;;2056760;28;20680;-74
2024/02/15 01:17:38;;;;;;;3.63;1.43;;;4.90;99.90;;;;;;2073785;28;20229;-74
2024/02/15 01:18:39;;;;;;;3.20;1.50;;;5.00;99.90;;;;;;2073624;28;20292;-74
2024/02/15 01:19:40;;;;;;;3.03;1.47;;;4.90;99.90;;;;;;2055933;28;20721;-73
2024/02/15 01:20:41;;;;;;;2.15;1.27;;;4.90;99.90;;;;;;2055519;28;20245;-74
2024/02/15 01:21:43;;;;;;;2.30;1.40;;;4.80;99.90;;;;;;2070438;28;20761;-74
2024/02/15 01:22:44;;;;;;;3.15;1.33;;;4.80;99.90;;;;;;2061691;28;20233;-73
2024/02/15 01:23:46;;;;;;;1.73;1.20;;;4.80;99.90;;;;;;2054503;28;20236;-74
2024/02/15 01:24:46;;;;;;;3.05;1.20;;;4.80;99.90;;;;;;2069249;28;20229;-74
2024/02/15 01:25:47;;;;;;;2.53;1.37;;;4.70;99.90;;;;;;2070356;28;20603;-74
2024/02/15 01:26:49;;;;;;;1.30;1.13;;;4.80;99.90;;;;;;2053457;28;20233;-75
2024/02/15 01:27:50;;;;;;;2.92;1.33;;;4.80;99.90;;;;;;2057010;28;20269;-74
2024/02/15 01:28:51;;;;;;;2.30;1.55;;;4.70;99.90;;;;;;2043338;28;20251;-74
2024/02/15 01:29:52;;;;;;;2.97;1.30;;;4.70;99.90;;;;;;2041144;28;20323;-74
2024/02/15 01:30:54;;;;;;;1.83;1.50;;;4.70;99.90;;;;;;2050059;28;20239;-74
2024/02/15 01:31:55;;;;;;;2.58;1.40;;;4.70;99.90;;;;;;2043684;28;20255;-73
2024/02/15 01:32:56;;;;;;;4.03;1.60;;;4.70;99.90;;;;;;2050267;28;20235;-74
2024/02/15 01:33:57;;;;;;;2.40;1.60;;;4.60;99.90;;;;;;2054396;28;20231;-74
2024/02/15 01:34:58;;;;;;;3.03;1.17;;;4.60;99.90;;;;;;2046678;28;20287;-74
2024/02/15 01:35:58;;;;;;;3.50;1.70;;;4.60;99.90;;;;;;2057887;28;20679;-75
2024/02/15 01:36:59;;;;;;;2.93;1.60;;;4.60;99.90;;;;;;2062679;28;20243;-74
2024/02/15 01:38:00;;;;;;;1.80;1.10;;;4.50;99.90;;;;;;2061927;28;20230;-74
2024/02/15 01:39:00;;;;;;;2.10;1.40;;;4.50;99.90;;;;;;2047704;28;20242;-72
2024/02/15 01:40:01;;;;;;;2.90;1.50;;;4.50;99.90;;;;;;2057213;28;20191;-72
2024/02/15 01:41:02;;;;;;;1.73;1.23;;;4.50;99.90;;;;;;2058811;28;20237;-72
2024/02/15 01:42:03;;;;;;;1.60;1.25;;;4.50;99.90;;;;;;2058150;28;20187;-73
2024/02/15 01:43:04;;;;;;;2.80;1.40;;;4.40;99.90;;;;;;2060928;28;20210;-74
2024/02/15 01:44:06;;;;;;;1.40;1.30;;;4.50;99.90;;;;;;2056762;28;20194;-74
2024/02/15 01:45:07;;;;;;;3.67;1.50;;;4.40;99.90;;;;;;2054553;28;20305;-74
2024/02/15 01:46:10;;;;;;;3.55;1.50;;;4.40;99.90;;;;;;2053767;28;20183;-73
2024/02/15 01:47:13;;;;;;;2.67;1.40;;;4.40;99.90;;;;;;2052424;28;20222;-73
2024/02/15 01:48:17;;;;;;;1.70;1.48;;;4.40;99.90;;;;;;2055173;28;20191;-74
2024/02/15 01:49:18;;;;;;;2.30;1.60;;;4.40;99.90;;;;;;2057946;28;20270;-75
2024/02/15 01:50:22;;;;;;;3.87;1.90;;;4.30;99.90;;;;;;2057898;28;20555;-74
2024/02/15 01:51:24;;;;;;;2.63;1.50;;;4.30;99.90;;;;;;2057944;28;20484;-74
2024/02/15 01:52:26;;;;;;;3.25;1.30;;;4.30;99.90;;;;;;2046909;28;20382;-74
2024/02/15 01:53:27;;;;;;;4.35;1.63;;;4.20;99.90;;;;;;2045436;28;20258;-74
2024/02/15 01:54:28;;;;;;;2.72;1.35;;;4.30;99.90;;;;;;2041936;28;20231;-73
2024/02/15 01:55:29;;;;;;;3.42;1.17;;;4.30;99.90;;;;;;2050340;28;20227;-73
2024/02/15 01:56:30;;;;;;;2.57;1.80;;;4.30;99.90;;;;;;2047828;28;20684;-73
2024/02/15 01:57:31;;;;;;;2.78;1.17;;;4.30;99.90;;;;;;2041871;28;20236;-74
2024/02/15 01:58:32;;;;;;;1.60;1.30;;;4.30;99.90;;;;;;2050380;28;20313;-74
2024/02/15 01:59:33;;;;;;;6.05;1.08;;;4.30;99.90;;;;;;2053773;28;20245;-74
2024/02/15 02:00:36;;;;;;;1.67;1.30;;;4.30;99.90;;;;;;2053929;28;20234;-74
2024/02/15 02:01:37;;;;;;;1.95;1.52;;;4.30;99.90;;;;;;2051214;28;20276;-75
2024/02/15 02:02:39;;;;;;;1.87;1.20;;;4.30;99.90;;;;;;2035012;29;20307;-74
2024/02/15 02:03:40;;;;;;;2.35;1.40;;;4.30;99.90;;;;;;2036751;28;20609;-74
2024/02/15 02:04:41;;;;;;;2.20;1.20;;;4.30;99.90;;;;;;2044571;28;20243;-74
2024/02/15 02:05:42;;;;;;;2.10;1.13;;;4.30;99.90;;;;;;2047572;28;20706;-74
2024/02/15 02:06:43;;;;;;;3.08;1.25;;;4.30;99.90;;;;;;2047282;28;20255;-74
2024/02/15 02:07:44;;;;;;;5.07;1.80;;;4.30;99.90;;;;;;2054384;28;20226;-74
2024/02/15 02:08:45;;;;;;;3.17;1.57;;;4.40;99.90;;;;;;2053185;28;20227;-74
2024/02/15 02:09:47;;;;;;;3.25;1.48;;;4.40;99.90;;;;;;2059039;28;20234;-74
2024/02/15 02:10:48;;;;;;;2.25;1.30;;;4.30;99.90;;;;;;2058971;28;20226;-74
2024/02/15 02:11:50;;;;;;;2.97;1.38;;;4.20;99.90;;;;;;2044945;28;20223;-74
2024/02/15 02:12:51;;;;;;;3.38;1.88;;;4.20;99.90;;;;;;2054154;28;20230;-74
2024/02/15 02:13:52;;;;;;;4.50;1.63;;;4.20;99.90;;;;;;2052225;28;20291;-73
2024/02/15 02:14:53;;;;;;;4.73;1.47;;;4.30;99.90;;;;;;2059064;28;20269;-73
2024/02/15 02:15:54;;;;;;;2.30;1.40;;;4.20;99.90;;;;;;2053071;28;20234;-74
2024/02/15 02:16:55;;;;;;;3.47;1.80;;;4.30;99.90;;;;;;2054572;28;20241;-74
2024/02/15 02:17:55;;;;;;;2.83;1.60;;;4.30;99.90;;;;;;2061170;28;20321;-74
2024/02/15 02:18:56;;;;;;;3.40;1.77;;;4.40;99.90;;;;;;2052069;28;20231;-74
2024/02/15 02:19:57;;;;;;;1.92;1.50;;;4.40;99.90;;;;;;2048903;28;20695;-73
2024/02/15 02:20:58;;;;;;;4.37;1.63;;;4.40;99.90;;;;;;2037056;29;20309;-73
2024/02/15 02:21:59;;;;;;;2.57;1.40;;;4.40;99.90;;;;;;2040764;29;20278;-73
2024/02/15 02:23:08;;;;;;;2.30;1.30;;;4.40;99.90;;;;;;2044865;28;20259;-73
2024/02/15 02:24:14;;;;;;;1.48;1.35;;;4.40;99.90;;;;;;2048501;28;20226;-73
2024/02/15 02:25:15;;;;;;;2.08;1.42;;;4.40;99.90;;;;;;2054597;28;20211;-75
2024/02/15 02:26:16;;;;;;;1.80;1.40;;;4.50;99.90;;;;;;2047128;28;20191;-74
2024/02/15 02:27:18;;;;;;;2.85;1.23;;;4.40;99.90;;;;;;2048473;28;20176;-73
2024/02/15 02:28:19;;;;;;;1.38;1.23;;;4.30;99.90;;;;;;2043182;28;20214;-74
2024/02/15 02:29:20;;;;;;;1.60;1.30;;;4.20;99.90;;;;;;2050313;28;20604;-72
2024/02/15 02:30:22;;;;;;;3.95;1.20;;;4.20;99.90;;;;;;2052776;28;20231;-74
2024/02/15 02:31:22;;;;;;;2.10;1.23;;;4.20;99.90;;;;;;2050583;28;20991;-75
2024/02/15 02:32:23;;;;;;;2.87;1.17;;;4.20;99.90;;;;;;2051182;28;20246;-74
2024/02/15 02:33:28;;;;;;;2.07;1.20;;;4.20;99.90;;;;;;2051608;28;20263;-74
2024/02/15 02:34:29;;;;;;;1.90;1.20;;;4.10;99.90;;;;;;2047310;28;20799;-73
2024/02/15 02:35:33;;;;;;;2.87;1.40;;;4.10;99.90;;;;;;2050305;28;20226;-73
2024/02/15 02:36:33;;;;;;;2.00;1.27;;;4.10;99.90;;;;;;2047445;28;20617;-74
2024/02/15 02:37:36;;;;;;;1.87;1.20;;;4.00;99.90;;;;;;2043146;28;20283;-74
2024/02/15 02:38:37;;;;;;;2.47;1.30;;;4.10;99.90;;;;;;2051023;28;20593;-74
2024/02/15 02:39:38;;;;;;;1.80;1.30;;;4.00;99.90;;;;;;2042070;28;20249;-74
2024/02/15 02:40:39;;;;;;;1.93;1.33;;;4.00;99.90;;;;;;2041671;28;20314;-74
2024/02/15 02:41:40;;;;;;;1.20;1.10;;;4.00;99.90;;;;;;2048866;28;20227;-75
2024/02/15 02:42:55;;;;;;;4.93;1.40;;;3.90;99.90;;;;;;2059441;28;20230;-74
2024/02/15 02:43:57;;;;;;;1.50;1.10;;;3.90;99.90;;;;;;2049030;28;20223;-74
2024/02/15 02:44:57;;;;;;;3.03;1.50;;;3.90;99.90;;;;;;2053853;28;20245;-74
2024/02/15 02:45:58;;;;;;;2.40;1.43;;;3.90;99.90;;;;;;2046251;28;20231;-73
2024/02/15 02:46:59;;;;;;;2.33;1.50;;;3.90;99.90;;;;;;2046899;28;20263;-74
2024/02/15 02:47:59;;;;;;;2.27;1.70;;;3.90;99.90;;;;;;2058242;28;20237;-73
2024/02/15 02:49:00;;;;;;;1.50;1.33;;;3.90;99.90;;;;;;2055306;28;20237;-74
2024/02/15 02:50:02;;;;;;;3.40;1.80;;;3.90;99.90;;;;;;2061340;28;20321;-73
2024/02/15 02:51:04;;;;;;;2.10;1.40;;;3.90;99.90;;;;;;2046276;28;20226;-74
2024/02/15 02:52:05;;;;;;;1.60;1.38;;;3.80;99.90;;;;;;2034573;29;20192;-74
2024/02/15 02:53:05;;;;;;;2.67;1.53;;;3.80;99.90;;;;;;2043257;28;20187;-74
2024/02/15 02:54:06;;;;;;;1.73;1.50;;;3.90;99.90;;;;;;2059344;28;20300;-74
2024/02/15 02:55:11;;;;;;;2.83;1.57;;;3.90;99.90;;;;;;2057883;28;20269;-73
2024/02/15 02:56:12;;;;;;;2.08;1.35;;;3.90;99.90;;;;;;2050401;28;20653;-74
2024/02/15 02:57:13;;;;;;;1.52;1.38;;;3.90;99.90;;;;;;2046957;28;20354;-73
2024/02/15 02:58:14;;;;;;;3.27;1.60;;;3.80;99.90;;;;;;2046508;28;20653;-74
2024/02/15 02:59:16;;;;;;;3.53;1.60;;;3.70;99.90;;;;;;2052206;28;20201;-74
2024/02/15 03:00:18;;;;;;;3.60;1.80;;;3.60;99.90;;;;;;2039152;28;20264;-74
2024/02/15 03:01:18;;;;;;;2.20;1.55;;;3.70;99.90;;;;;;2042727;28;20207;-73
2024/02/15 03:02:19;;;;;;;1.90;1.57;;;3.70;99.90;;;;;;2043703;28;20218;-73
2024/02/15 03:03:20;;;;;;;2.20;1.53;;;3.80;99.90;;;;;;2050453;28;20649;-73
2024/02/15 03:04:20;;;;;;;3.43;1.53;;;3.80;99.90;;;;;;2040665;28;20243;-74
2024/02/15 03:05:21;;;;;;;3.07;1.63;;;3.70;99.90;;;;;;2036614;29;20318;-74
2024/02/15 03:06:24;;;;;;;2.07;1.60;;;3.70;99.90;;;;;;2032592;29;20255;-73
2024/02/15 03:07:26;;;;;;;1.42;1.20;;;3.70;99.90;;;;;;2041434;28;20263;-74
2024/02/15 03:08:26;;;;;;;2.50;1.40;;;3.60;99.90;;;;;;2049810;28;20623;-73
2024/02/15 03:09:29;;;;;;;2.60;1.40;;;3.70;99.90;;;;;;2052009;28;20245;-74
2024/02/15 03:10:29;;;;;;;1.75;1.50;;;3.60;99.90;;;;;;2061107;28;20275;-74
2024/02/15 03:11:30;;;;;;;4.80;1.60;;;3.60;99.90;;;;;;2058085;28;20716;-74
2024/02/15 03:12:31;;;;;;;2.97;1.73;;;3.60;99.90;;;;;;2055372;28;20681;-73
2024/02/15 03:13:32;;;;;;;4.00;1.75;;;3.50;99.90;;;;;;2041858;28;20326;-74
2024/02/15 03:14:35;;;;;;;2.30;1.60;;;3.50;99.90;;;;;;2042046;28;20253;-73
2024/02/15 03:15:36;;;;;;;2.13;1.50;;;3.50;99.90;;;;;;2052385;28;20237;-74
2024/02/15 03:16:38;;;;;;;2.88;1.40;;;3.50;99.90;;;;;;2043166;28;20262;-74
2024/02/15 03:17:43;;;;;;;3.22;1.92;;;3.50;99.90;;;;;;2044325;28;20231;-74
2024/02/15 03:18:43;;;;;;;6.28;1.85;;;3.50;99.90;;;;;;2051845;28;20265;-75
2024/02/15 03:19:44;;;;;;;4.20;2.10;;;3.50;99.90;;;;;;2053313;28;20236;-76
2024/02/15 03:20:45;;;;;;;3.43;1.90;;;3.60;99.90;;;;;;2054094;28;20237;-73
2024/02/15 03:21:46;;;;;;;2.60;1.60;;;3.50;99.90;;;;;;2054111;28;20238;-73
2024/02/15 03:23:00;;;;;;;4.85;1.73;;;3.40;99.90;;;;;;2054659;28;20727;-74
2024/02/15 03:24:01;;;;;;;2.25;1.65;;;3.40;99.90;;;;;;2051346;28;20665;-73
2024/02/15 03:25:02;;;;;;;2.00;1.60;;;3.40;99.90;;;;;;2053570;28;20245;-74
2024/02/15 03:26:05;;;;;;;1.80;1.30;;;3.40;99.90;;;;;;2037877;29;20863;-74
2024/02/15 03:27:10;;;;;;;1.67;1.40;;;3.40;99.90;;;;;;2045203;28;20230;-74
2024/02/15 03:28:10;;;;;;;2.60;1.50;;;3.30;99.90;;;;;;2046663;28;20192;-75
2024/02/15 03:29:11;;;;;;;3.67;1.50;;;3.40;99.90;;;;;;2051508;28;20197;-74
2024/02/15 03:30:12;;;;;;;1.93;1.40;;;3.30;99.90;;;;;;2055583;28;20186;-73
2024/02/15 03:31:14;;;;;;;1.85;1.42;;;3.40;99.90;;;;;;2049328;28;20198;-73
2024/02/15 03:32:16;;;;;;;3.42;1.50;;;3.30;99.90;;;;;;2041559;28;20194;-74
2024/02/15 03:33:17;;;;;;;2.90;1.60;;;3.20;99.90;;;;;;2051724;28;20186;-74
2024/02/15 03:34:21;;;;;;;1.57;1.30;;;3.20;99.90;;;;;;2053455;28;20665;-74
2024/02/15 03:35:24;;;;;;;1.85;1.50;;;3.20;99.90;;;;;;2053380;28;20276;-74
2024/02/15 03:36:25;;;;;;;2.03;1.45;;;3.20;99.90;;;;;;2034988;28;20235;-73
2024/02/15 03:37:27;;;;;;;2.20;1.37;;;3.20;99.90;;;;;;2038815;29;20227;-74
2024/02/15 03:38:29;;;;;;;2.65;1.65;;;3.20;99.90;;;;;;2035579;28;20235;-74
2024/02/15 03:39:30;;;;;;;1.80;1.45;;;3.20;99.90;;;;;;2030526;29;20247;-74
2024/02/15 03:40:32;;;;;;;2.55;1.73;;;3.20;99.90;;;;;;2037482;29;20325;-74
2024/02/15 03:41:32;;;;;;;1.50;1.38;;;3.20;99.90;;;;;;2046306;28;20716;-74
2024/02/15 03:42:36;;;;;;;2.20;1.50;;;3.30;99.90;;;;;;2058738;28;20233;-74
2024/02/15 03:43:38;;;;;;;1.65;1.30;;;3.30;99.90;;;;;;2058774;28;20639;-75
2024/02/15 03:44:41;;;;;;;3.10;1.90;;;3.30;99.90;;;;;;2050316;28;20233;-74
2024/02/15 03:45:41;;;;;;;3.15;1.45;;;3.30;99.90;;;;;;2036978;28;20228;-75
2024/02/15 03:46:42;;;;;;;1.93;1.20;;;3.30;99.90;;;;;;2041943;28;20657;-74
2024/02/15 03:47:43;;;;;;;3.40;1.50;;;3.20;99.90;;;;;;2060019;28;20230;-73
2024/02/15 03:48:44;;;;;;;2.27;1.70;;;3.30;99.90;;;;;;2061384;28;20263;-73
2024/02/15 03:49:45;;;;;;;1.60;1.40;;;3.30;99.90;;;;;;2054215;28;20472;-76
2024/02/15 03:50:45;;;;;;;2.93;1.60;;;3.20;99.90;;;;;;2052733;28;20250;-73
2024/02/15 03:51:47;;;;;;;2.27;1.57;;;3.20;99.90;;;;;;2050126;28;20309;-74
2024/02/15 03:52:50;;;;;;;2.15;1.30;;;3.20;99.90;;;;;;2045315;28;20235;-74
2024/02/15 03:53:52;;;;;;;3.63;1.33;;;3.20;99.90;;;;;;2038101;28;20599;-75
2024/02/15 03:54:53;;;;;;;3.25;1.80;;;3.20;99.90;;;;;;2058093;28;20734;-74
2024/02/15 03:55:54;;;;;;;1.83;1.35;;;3.20;99.90;;;;;;2045002;28;20243;-74
2024/02/15 03:56:57;;;;;;;1.70;1.17;;;3.10;99.90;;;;;;2057105;28;20236;-74
2024/02/15 03:57:58;;;;;;;2.15;1.58;;;3.10;99.90;;;;;;2049028;28;20243;-74
2024/02/15 03:58:59;;;;;;;1.50;1.30;;;3.10;99.90;;;;;;2053768;28;20329;-74
2024/02/15 04:00:00;;;;;;;1.80;1.37;;;3.00;99.90;;;;;;2053520;28;20269;-74
2024/02/15 04:01:00;;;;;;;2.20;1.40;;;3.00;99.90;;;;;;2046313;28;20751;-74
2024/02/15 04:02:03;;;;;;;1.60;1.20;;;3.00;99.90;;;;;;2043307;28;20343;-73
2024/02/15 04:03:05;;;;;;;2.72;1.35;;;3.00;99.90;;;;;;2055773;28;20189;-75
2024/02/15 04:04:05;;;;;;;2.60;1.30;;;3.10;99.90;;;;;;2054424;28;20293;-76
2024/02/15 04:05:09;;;;;;;3.07;1.93;;;3.10;99.90;;;;;;2061729;28;20213;-74
2024/02/15 04:06:11;;;;;;;2.40;1.70;;;2.90;99.90;;;;;;2039940;28;20196;-74
2024/02/15 04:07:11;;;;;;;4.43;1.85;;;2.90;99.90;;;;;;2050540;28;20261;-74
2024/02/15 04:08:12;;;;;;;2.10;1.70;;;2.90;99.90;;;;;;2045665;28;20193;-74
2024/02/15 04:09:13;;;;;;;3.13;1.97;;;3.00;99.90;;;;;;2045006;28;20189;-74
2024/02/15 04:10:14;;;;;;;2.70;2.10;;;3.00;99.90;;;;;;2039486;28;20195;-73
2024/02/15 04:11:16;;;;;;;2.35;1.95;;;3.00;99.90;;;;;;2053981;28;20190;-75
2024/02/15 04:12:17;;;;;;;1.92;1.70;;;3.00;99.90;;;;;;2053255;28;20280;-74
2024/02/15 04:13:17;;;;;;;2.63;1.83;;;3.00;99.90;;;;;;2053919;28;20194;-74
2024/02/15 04:14:21;;;;;;;2.53;1.83;;;3.00;99.90;;;;;;2047488;28;20183;-73
2024/02/15 04:15:21;;;;;;;1.48;1.38;;;2.90;99.90;;;;;;2051296;28;20231;-74
2024/02/15 04:16:22;;;;;;;1.90;1.60;;;2.80;99.90;;;;;;2045702;28;20313;-73
2024/02/15 04:17:23;;;;;;;1.93;1.60;;;2.80;99.90;;;;;;2053147;28;20450;-73
2024/02/15 04:18:24;;;;;;;2.70;1.75;;;2.80;99.90;;;;;;2053943;28;20259;-74
2024/02/15 04:19:25;;;;;;;3.37;1.80;;;2.90;99.90;;;;;;2041051;28;20688;-74
2024/02/15 04:20:26;;;;;;;2.27;1.50;;;2.90;99.90;;;;;;2050292;28;20250;-73
2024/02/15 04:21:27;;;;;;;1.75;1.30;;;2.90;99.90;;;;;;2049924;28;20754;-73
2024/02/15 04:22:28;;;;;;;2.70;1.30;;;2.80;99.90;;;;;;2053593;28;20698;-74
2024/02/15 04:23:29;;;;;;;2.00;1.60;;;2.80;99.90;;;;;;2060769;28;20702;-73
2024/02/15 04:24:30;;;;;;;2.28;1.60;;;2.80;99.90;;;;;;2054946;28;20232;-74
2024/02/15 04:25:31;;;;;;;2.73;1.83;;;2.80;99.90;;;;;;2037698;29;20229;-74
2024/02/15 04:26:33;;;;;;;1.87;1.67;;;2.80;99.90;;;;;;2051028;28;20221;-73
2024/02/15 04:27:34;;;;;;;2.83;1.60;;;2.80;99.90;;;;;;2059302;28;20609;-74
2024/02/15 04:28:34;;;;;;;4.37;1.90;;;2.80;99.90;;;;;;2051247;28;20251;-74
2024/02/15 04:29:36;;;;;;;4.23;1.70;;;2.70;99.90;;;;;;2055850;28;20221;-74
2024/02/15 04:30:38;;;;;;;1.67;1.50;;;2.70;99.90;;;;;;2050606;28;20227;-74
2024/02/15 04:31:39;;;;;;;2.90;1.90;;;2.70;99.90;;;;;;2052416;28;20229;-73
2024/02/15 04:32:40;;;;;;;3.38;1.95;;;2.70;99.90;;;;;;2050802;28;20234;-74
2024/02/15 04:33:41;;;;;;;4.50;2.23;;;2.70;99.90;;;;;;2053370;28;20590;-75
2024/02/15 04:34:41;;;;;;;2.67;1.92;;;2.70;99.90;;;;;;2053183;28;20626;-74
2024/02/15 04:35:43;;;;;;;3.90;1.87;;;2.60;99.90;;;;;;2061625;28;20225;-75
2024/02/15 04:36:50;;;;;;;2.95;1.98;;;2.60;99.90;;;;;;2055695;28;20244;-73
2024/02/15 04:37:53;;;;;;;2.13;1.63;;;2.60;99.90;;;;;;2046352;28;20238;-74
2024/02/15 04:38:53;;;;;;;3.83;1.83;;;2.60;99.90;;;;;;2053274;28;20744;-74
2024/02/15 04:39:55;;;;;;;2.57;1.60;;;2.60;99.90;;;;;;2050335;28;20307;-74
2024/02/15 04:40:56;;;;;;;2.78;2.08;;;2.60;99.90;;;;;;2056220;28;20335;-74
2024/02/15 04:41:56;;;;;;;2.47;1.57;;;2.60;99.90;;;;;;2043745;28;20234;-74
2024/02/15 04:42:58;;;;;;;2.83;1.90;;;2.60;99.90;;;;;;2050166;28;20227;-74
2024/02/15 04:43:59;;;;;;;3.20;1.70;;;2.60;99.90;;;;;;2061008;28;20239;-74
2024/02/15 04:45:00;;;;;;;2.77;1.80;;;2.60;99.90;;;;;;2049699;28;20238;-74
2024/02/15 04:46:02;;;;;;;2.60;1.40;;;2.60;99.90;;;;;;2060400;28;20229;-74
2024/02/15 04:47:03;;;;;;;2.97;1.70;;;2.60;99.90;;;;;;2053121;28;20241;-73
2024/02/15 04:48:07;;;;;;;2.42;1.63;;;2.60;99.90;;;;;;2054524;28;20332;-73
2024/02/15 04:49:08;;;;;;;2.90;1.90;;;2.60;99.90;;;;;;2061888;28;20235;-76
2024/02/15 04:50:09;;;;;;;4.50;2.20;;;2.60;99.90;;;;;;2052272;28;20189;-74
2024/02/15 04:51:11;;;;;;;3.42;1.75;;;2.60;99.90;;;;;;2051173;28;20699;-74
2024/02/15 04:52:12;;;;;;;2.30;1.70;;;2.60;99.90;;;;;;2050589;28;20722;-74
2024/02/15 04:53:12;;;;;;;2.00;1.80;;;2.60;99.90;;;;;;2044890;28;20187;-74
2024/02/15 04:54:14;;;;;;;2.87;1.80;;;2.70;99.90;;;;;;2050203;28;20313;-74
2024/02/15 04:55:15;;;;;;;2.38;1.50;;;2.60;99.90;;;;;;2055285;28;20205;-74
2024/02/15 04:56:17;;;;;;;2.45;1.67;;;2.50;99.90;;;;;;2053035;28;20196;-74
2024/02/15 04:57:17;;;;;;;3.58;2.00;;;2.40;99.90;;;;;;2041964;28;20194;-74
2024/02/15 04:58:19;;;;;;;2.53;2.03;;;2.40;99.90;;;;;;2052728;28;20637;-74
2024/02/15 04:59:21;;;;;;;1.67;1.55;;;2.50;99.90;;;;;;2059355;28;20774;-74
2024/02/15 05:00:25;;;;;;;4.47;1.70;;;2.50;99.90;;;;;;2056233;28;20237;-74
2024/02/15 05:01:26;;;;;;;1.98;1.70;;;2.50;99.90;;;;;;2050216;28;20238;-75
2024/02/15 05:02:27;;;;;;;2.73;2.27;;;2.40;99.90;;;;;;2045722;28;20232;-74
2024/02/15 05:03:28;;;;;;;2.03;1.83;;;2.40;99.90;;;;;;2052907;28;20345;-74
2024/02/15 05:04:29;;;;;;;2.75;2.40;;;2.40;99.90;;;;;;2042435;28;20251;-74
2024/02/15 05:05:30;;;;;;;2.73;1.93;;;2.30;99.90;;;;;;2040339;29;20236;-74
2024/02/15 05:06:32;;;;;;;3.80;2.30;;;2.30;99.90;;;;;;2042232;28;20327;-74
2024/02/15 05:07:32;;;;;;;3.25;2.55;;;2.40;99.90;;;;;;2041647;28;20601;-75
2024/02/15 05:08:35;;;;;;;2.87;2.00;;;2.40;99.90;;;;;;2041576;28;20236;-74
2024/02/15 05:09:35;;;;;;;4.05;2.05;;;2.50;99.90;;;;;;2049395;28;20234;-74
2024/02/15 05:10:36;;;;;;;3.17;2.20;;;2.50;99.90;;;;;;2042879;28;20226;-74
2024/02/15 05:11:41;;;;;;;3.97;1.90;;;2.50;99.90;;;;;;2051984;28;20277;-74
2024/02/15 05:12:42;;;;;;;2.40;1.75;;;2.40;99.90;;;;;;2054758;28;20279;-74
2024/02/15 05:13:44;;;;;;;2.70;2.15;;;2.40;99.90;;;;;;2045656;28;20571;-74
2024/02/15 05:14:45;;;;;;;3.85;2.50;;;2.40;99.90;;;;;;2044558;28;20238;-74
2024/02/15 05:15:46;;;;;;;2.20;2.00;;;2.40;99.90;;;;;;2058772;28;20239;-74
2024/02/15 05:16:50;;;;;;;2.37;2.03;;;2.40;99.90;;;;;;2055441;28;20239;-74
2024/02/15 05:17:50;;;;;;;2.20;2.00;;;2.50;99.90;;;;;;2045249;28;20223;-74
2024/02/15 05:18:51;;;;;;;2.83;2.00;;;2.40;99.90;;;;;;2046620;28;20236;-73
2024/02/15 05:19:52;;;;;;;2.83;2.00;;;2.40;99.90;;;;;;2057667;28;20227;-75
2024/02/15 05:20:52;;;;;;;3.33;2.27;;;2.40;99.90;;;;;;2054608;28;20264;-73
2024/02/15 05:21:54;;;;;;;3.03;2.40;;;2.40;99.90;;;;;;2060357;28;20328;-73
2024/02/15 05:22:55;;;;;;;2.30;1.92;;;2.30;99.90;;;;;;2043010;28;20634;-74
2024/02/15 05:23:57;;;;;;;3.90;2.43;;;2.30;99.90;;;;;;2048783;28;20250;-74